createdAt,value
2022-09-04T00:01:35.452Z,36.92
2022-09-04T00:04:25.021Z,38.80
2022-09-04T00:06:58.939Z,36.60
2022-09-04T00:09:35.416Z,37.13
2022-09-04T00:12:04.893Z,36.65
2022-09-04T00:14:38.437Z,37.38
2022-09-04T00:17:08.830Z,35.72
2022-09-04T00:19:36.436Z,33.33
2022-09-04T00:22:10.963Z,36.35
2022-09-04T00:24:43.786Z,37.50
2022-09-04T00:27:24.384Z,40.95
2022-09-04T00:30:04.815Z,39.38
2022-09-04T00:32:35.377Z,34.85
2022-09-04T00:35:12.221Z,35.72
2022-09-04T00:37:48.795Z,39.20
2022-09-04T00:40:31.465Z,37.80
2022-09-04T00:43:06.748Z,38.33
2022-09-04T00:45:53.246Z,37.83
2022-09-04T00:48:39.527Z,38.53
2022-09-04T00:51:17.992Z,36.60
2022-09-04T00:53:56.542Z,37.92
2022-09-04T00:56:36.492Z,37.90
2022-09-04T00:59:10.879Z,42.03
2022-09-04T01:01:39.174Z,37.15
2022-09-04T01:04:16.511Z,41.08
2022-09-04T01:07:04.398Z,40.67
2022-09-04T01:09:44.707Z,36.85
2022-09-04T01:12:30.844Z,40.83
2022-09-04T01:15:14.684Z,38.17
2022-09-04T01:17:59.249Z,40.92
2022-09-04T01:20:45.505Z,40.47
2022-09-04T01:23:31.856Z,39.03
2022-09-04T01:26:09.092Z,39.53
2022-09-04T01:28:36.572Z,39.38
2022-09-04T01:31:21.594Z,37.72
2022-09-04T01:33:55.954Z,40.15
2022-09-04T01:38:56.495Z,36.72
2022-09-04T01:41:27.826Z,35.28
2022-09-04T01:43:55.464Z,42.42
2022-09-04T01:46:31.680Z,38.38
2022-09-04T01:49:04.579Z,37.47
2022-09-04T01:51:40.321Z,37.22
2022-09-04T01:54:35.205Z,39.45
2022-09-04T01:57:08.767Z,37.53
2022-09-04T01:59:44.989Z,40.45
2022-09-04T02:02:13.591Z,38.45
2022-09-04T02:04:48.461Z,37.45
2022-09-04T02:07:16.124Z,42.15
2022-09-04T02:09:53.908Z,37.88
2022-09-04T02:12:42.491Z,43.08
2022-09-04T02:15:16.139Z,42.90
2022-09-04T02:17:48.237Z,49.40
2022-09-04T02:20:20.555Z,50.95
2022-09-04T02:22:54.242Z,57.78
2022-09-04T02:25:32.358Z,58.35
2022-09-04T02:28:02.798Z,58.65
2022-09-04T02:30:44.495Z,61.75
2022-09-04T02:33:22.109Z,62.25
2022-09-04T02:35:55.611Z,56.58
2022-09-04T02:38:26.117Z,51.97
2022-09-04T02:41:05.692Z,52.63
2022-09-04T02:43:39.734Z,59.38
2022-09-04T02:46:27.165Z,63.70
2022-09-04T02:49:15.837Z,61.47
2022-09-04T02:52:03.063Z,55.67
2022-09-04T02:54:43.587Z,57.10
2022-09-04T02:57:30.063Z,55.47
2022-09-04T03:00:27.459Z,56.00
2022-09-04T03:03:02.579Z,58.65
2022-09-04T03:05:33.153Z,60.45
2022-09-04T03:08:15.973Z,61.75
2022-09-04T03:10:45.974Z,55.83
2022-09-04T03:13:16.541Z,58.13
2022-09-04T03:15:51.648Z,56.92
2022-09-04T03:18:28.416Z,56.33
2022-09-04T03:21:01.752Z,51.17
2022-09-04T03:23:50.137Z,54.78
2022-09-04T03:26:17.808Z,50.75
2022-09-04T03:29:10.160Z,52.30
2022-09-04T03:31:56.284Z,45.25
2022-09-04T03:34:47.126Z,49.35
2022-09-04T03:37:20.706Z,46.30
2022-09-04T03:39:48.484Z,47.40
2022-09-04T03:42:23.667Z,52.38
2022-09-04T03:44:52.428Z,47.33
2022-09-04T03:47:34.172Z,46.80
2022-09-04T03:50:27.821Z,46.30
2022-09-04T03:52:56.015Z,43.38
2022-09-04T03:55:45.616Z,44.78
2022-09-04T03:58:32.060Z,48.53
2022-09-04T04:01:24.183Z,43.75
2022-09-04T04:03:55.517Z,42.13
2022-09-04T04:06:29.815Z,44.78
2022-09-04T04:09:16.833Z,45.17
2022-09-04T04:12:06.441Z,43.92
2022-09-04T04:14:38.310Z,39.97
2022-09-04T04:17:18.677Z,43.00
2022-09-04T04:20:05.191Z,42.30
2022-09-04T04:25:09.738Z,43.08
2022-09-04T04:27:49.839Z,44.80
2022-09-04T04:30:18.578Z,43.50
2022-09-04T04:33:05.137Z,46.13
2022-09-04T04:35:35.846Z,45.17
2022-09-04T04:38:13.424Z,42.63
2022-09-04T04:40:58.863Z,41.92
2022-09-04T04:43:35.780Z,43.22
2022-09-04T04:46:16.127Z,44.47
2022-09-04T04:49:04.387Z,42.50
2022-09-04T04:51:39.397Z,46.38
2022-09-04T04:54:36.467Z,46.53
2022-09-04T04:57:16.358Z,47.15
2022-09-04T04:59:49.002Z,42.67
2022-09-04T05:02:35.534Z,43.92
2022-09-04T05:05:13.001Z,45.72
2022-09-04T05:08:03.938Z,42.80
2022-09-04T05:11:13.857Z,47.88
2022-09-04T05:13:51.711Z,43.45
2022-09-04T05:16:31.287Z,43.78
2022-09-04T05:19:01.067Z,46.63
2022-09-04T05:21:40.643Z,44.40
2022-09-04T05:24:18.969Z,44.40
2022-09-04T05:27:01.515Z,45.42
2022-09-04T05:29:51.274Z,45.53
2022-09-04T05:32:25.497Z,49.58
2022-09-04T05:35:00.082Z,47.60
2022-09-04T05:37:34.024Z,43.35
2022-09-04T05:40:01.771Z,49.05
2022-09-04T05:42:48.766Z,47.40
2022-09-04T05:45:24.977Z,43.00
2022-09-04T05:48:10.817Z,43.45
2022-09-04T05:50:46.802Z,44.08
2022-09-04T05:53:33.181Z,38.88
2022-09-04T05:56:17.151Z,43.72
2022-09-04T05:59:02.815Z,46.17
2022-09-04T06:01:31.937Z,41.45
2022-09-04T06:04:18.323Z,44.97
2022-09-04T06:06:46.164Z,49.38
2022-09-04T06:09:25.878Z,42.33
2022-09-04T06:11:56.346Z,48.05
2022-09-04T06:14:28.094Z,49.20
2022-09-04T06:17:04.746Z,46.42
2022-09-04T06:19:38.301Z,44.90
2022-09-04T06:22:44.612Z,43.90
2022-09-04T06:25:32.541Z,44.20
2022-09-04T06:28:00.121Z,43.57
2022-09-04T06:30:34.576Z,45.40
2022-09-04T06:35:43.806Z,41.65
2022-09-04T06:38:14.713Z,46.17
2022-09-04T06:40:44.917Z,41.58
2022-09-04T06:43:17.445Z,43.50
2022-09-04T06:45:47.804Z,38.17
2022-09-04T06:48:34.363Z,36.63
2022-09-04T06:51:21.004Z,37.90
2022-09-04T06:53:57.596Z,35.08
2022-09-04T06:56:25.086Z,30.83
2022-09-04T06:59:11.429Z,31.00
2022-09-04T07:01:48.435Z,31.77
2022-09-04T07:04:28.233Z,32.42
2022-09-04T07:06:55.739Z,29.52
2022-09-04T07:09:31.858Z,27.60
2022-09-04T07:12:02.494Z,30.02
2022-09-04T07:14:56.357Z,35.67
2022-09-04T07:18:01.510Z,33.33
2022-09-04T07:20:55.228Z,27.48
2022-09-04T07:23:35.990Z,32.60
2022-09-04T07:26:11.739Z,33.22
2022-09-04T07:28:59.577Z,33.50
2022-09-04T07:31:42.867Z,34.63
2022-09-04T07:34:22.517Z,31.92
2022-09-04T07:36:56.165Z,33.60
2022-09-04T07:39:31.762Z,29.93
2022-09-04T07:41:59.959Z,30.67
2022-09-04T07:44:33.365Z,29.75
2022-09-04T07:47:14.498Z,31.10
2022-09-04T07:49:44.919Z,33.70
2022-09-04T07:52:24.119Z,31.90
2022-09-04T07:55:11.399Z,33.70
2022-09-04T07:57:42.096Z,31.98
2022-09-04T08:00:10.457Z,34.97
2022-09-04T08:02:59.418Z,32.70
2022-09-04T08:05:37.635Z,33.97
2022-09-04T08:08:11.088Z,32.83
2022-09-04T08:11:00.716Z,32.03
2022-09-04T08:13:59.831Z,33.88
2022-09-04T08:16:36.353Z,33.42
2022-09-04T08:19:15.637Z,36.83
2022-09-04T08:21:45.139Z,35.47
2022-09-04T08:25:07.349Z,40.58
2022-09-04T08:27:44.251Z,34.60
2022-09-04T08:30:14.694Z,35.15
2022-09-04T08:32:56.311Z,42.13
2022-09-04T08:35:35.865Z,38.95
2022-09-04T08:38:40.676Z,37.28
2022-09-04T08:41:42.879Z,41.57
2022-09-04T08:44:28.945Z,41.60
2022-09-04T08:47:19.793Z,44.05
2022-09-04T08:50:23.904Z,44.55
2022-09-04T08:53:26.271Z,39.95
2022-09-04T08:56:18.523Z,40.83
2022-09-04T08:58:55.346Z,40.53
2022-09-04T09:02:01.499Z,35.85
2022-09-04T09:05:00.141Z,36.10
2022-09-04T09:07:58.513Z,31.92
2022-09-04T09:10:35.902Z,30.05
2022-09-04T09:13:24.140Z,28.55
2022-09-04T09:16:09.074Z,28.98
2022-09-04T09:18:41.538Z,27.80
2022-09-04T09:21:22.157Z,25.98
2022-09-04T09:24:26.451Z,26.98
2022-09-04T09:27:02.658Z,29.15
2022-09-04T09:30:07.962Z,26.00
2022-09-04T09:35:30.165Z,18.75
2022-09-04T09:38:27.409Z,17.38
2022-09-04T09:41:20.243Z,20.75
2022-09-04T09:44:11.535Z,21.42
2022-09-04T09:46:42.561Z,26.05
2022-09-04T09:49:35.208Z,26.65
2022-09-04T09:52:15.998Z,27.38
2022-09-04T09:55:17.054Z,28.27
2022-09-04T09:58:02.462Z,29.98
2022-09-04T10:01:22.349Z,30.92
2022-09-04T10:04:23.951Z,30.85
2022-09-04T10:07:10.777Z,30.45
2022-09-04T10:10:16.560Z,32.88
2022-09-04T10:12:55.593Z,32.88
2022-09-04T10:15:55.514Z,30.80
2022-09-04T10:19:00.507Z,28.88
2022-09-04T10:22:15.215Z,29.08
2022-09-04T10:25:15.881Z,27.23
2022-09-04T10:27:58.300Z,29.48
2022-09-04T10:30:41.793Z,26.85
2022-09-04T10:33:43.867Z,26.38
2022-09-04T10:36:23.392Z,25.25
2022-09-04T10:39:41.073Z,28.50
2022-09-04T10:42:26.414Z,27.77
2022-09-04T10:45:22.255Z,25.40
2022-09-04T10:48:07.715Z,27.33
2022-09-04T10:50:58.144Z,26.23
2022-09-04T10:53:28.628Z,27.65
2022-09-04T10:56:02.926Z,26.05
2022-09-04T10:58:45.169Z,24.48
2022-09-04T11:01:30.317Z,25.63
2022-09-04T11:04:15.131Z,25.25
2022-09-04T11:07:01.236Z,22.55
2022-09-04T11:09:42.791Z,19.92
2022-09-04T11:12:17.643Z,20.23
2022-09-04T11:15:11.267Z,16.30
2022-09-04T11:18:09.107Z,15.30
2022-09-04T11:20:51.298Z,13.82
2022-09-04T11:23:48.770Z,9.93
2022-09-04T11:26:36.460Z,10.20
2022-09-04T11:29:18.025Z,9.32
2022-09-04T11:32:13.737Z,11.40
2022-09-04T11:35:01.363Z,10.43
2022-09-04T11:37:34.878Z,9.00
2022-09-04T11:40:33.080Z,11.23
2022-09-04T11:43:32.089Z,8.43
2022-09-04T11:46:22.382Z,8.77
2022-09-04T11:49:10.729Z,9.90
2022-09-04T11:52:22.779Z,9.70
2022-09-04T11:55:25.377Z,9.40
2022-09-04T11:58:20.516Z,8.90
2022-09-04T12:00:59.641Z,8.10
2022-09-04T12:03:49.534Z,8.95
2022-09-04T12:06:29.596Z,8.07
2022-09-04T12:09:51.368Z,9.27
2022-09-04T12:12:45.655Z,6.35
2022-09-04T12:15:32.741Z,7.28
2022-09-04T12:18:26.891Z,5.38
2022-09-04T12:20:59.999Z,6.13
2022-09-04T12:23:58.190Z,6.78
2022-09-04T12:26:52.125Z,7.65
2022-09-04T12:32:20.710Z,6.97
2022-09-04T12:35:06.892Z,6.50
2022-09-04T12:37:48.504Z,6.38
2022-09-04T12:40:34.432Z,6.78
2022-09-04T12:43:31.082Z,5.57
2022-09-04T12:46:26.994Z,5.47
2022-09-04T12:48:56.736Z,6.10
2022-09-04T12:51:25.320Z,3.47
2022-09-04T12:54:14.757Z,5.03
2022-09-04T12:56:50.175Z,5.47
2022-09-04T12:59:31.665Z,4.70
2022-09-04T13:02:27.971Z,5.13
2022-09-04T13:05:06.818Z,12.25
2022-09-04T13:07:41.016Z,3.88
2022-09-04T13:13:16.769Z,4.65
2022-09-04T13:16:09.062Z,6.43
2022-09-04T13:18:58.423Z,6.63
2022-09-04T13:21:41.576Z,5.10
2022-09-04T13:24:26.609Z,3.33
2022-09-04T13:27:28.216Z,2.58
2022-09-04T13:30:08.300Z,4.03
2022-09-04T13:33:00.306Z,5.93
2022-09-04T13:35:59.360Z,2.85
2022-09-04T13:38:57.777Z,2.72
2022-09-04T13:42:01.351Z,4.63
2022-09-04T13:45:06.599Z,5.13
2022-09-04T13:50:16.293Z,7.18
2022-09-04T13:52:59.647Z,2.95
2022-09-04T13:55:39.596Z,3.85
2022-09-04T13:58:22.281Z,3.25
2022-09-04T14:00:57.347Z,4.88
2022-09-04T14:03:39.502Z,3.55
2022-09-04T14:06:11.500Z,4.50
2022-09-04T14:08:39.917Z,4.80
2022-09-04T14:11:22.130Z,5.35
2022-09-04T14:14:20.011Z,3.72
2022-09-04T14:16:49.563Z,4.28
2022-09-04T14:20:01.648Z,5.60
2022-09-04T14:22:58.001Z,4.72
2022-09-04T14:25:42.641Z,2.67
2022-09-04T14:28:21.045Z,5.13
2022-09-04T14:31:14.791Z,4.38
2022-09-04T14:34:03.922Z,6.78
2022-09-04T14:36:56.660Z,3.22
2022-09-04T14:39:47.488Z,4.07
2022-09-04T14:42:29.510Z,2.45
2022-09-04T14:45:13.371Z,3.08
2022-09-04T14:47:55.103Z,3.42
2022-09-04T14:50:31.458Z,4.25
2022-09-04T14:53:06.197Z,4.47
2022-09-04T14:55:35.900Z,6.07
2022-09-04T14:58:29.338Z,7.85
2022-09-04T15:01:09.084Z,4.05
2022-09-04T15:04:00.244Z,3.92
2022-09-04T15:07:07.934Z,6.35
2022-09-04T15:09:45.716Z,3.88
2022-09-04T15:12:34.403Z,5.55
2022-09-04T15:15:15.832Z,9.63
2022-09-04T15:17:52.824Z,5.25
2022-09-04T15:20:28.415Z,4.13
2022-09-04T15:23:01.543Z,5.07
2022-09-04T15:25:57.184Z,5.07
2022-09-04T15:28:44.108Z,6.40
2022-09-04T15:31:16.614Z,7.22
2022-09-04T15:33:47.741Z,7.53
2022-09-04T15:36:20.868Z,7.53
2022-09-04T15:39:00.212Z,6.65
2022-09-04T15:41:39.684Z,5.72
2022-09-04T15:44:31.741Z,5.68
2022-09-04T15:47:20.496Z,7.28
2022-09-04T15:49:55.326Z,6.15
2022-09-04T15:52:58.583Z,6.13
2022-09-04T15:55:33.859Z,5.82
2022-09-04T15:58:19.891Z,7.45
2022-09-04T16:01:06.397Z,7.75
2022-09-04T16:03:44.787Z,8.02
2022-09-04T16:06:31.755Z,7.85
2022-09-04T16:09:06.794Z,6.53
2022-09-04T16:11:45.311Z,7.45
2022-09-04T16:14:23.063Z,6.53
2022-09-04T16:17:00.054Z,6.43
2022-09-04T16:19:33.792Z,5.80
2022-09-04T16:22:15.170Z,5.95
2022-09-04T16:24:51.093Z,6.15
2022-09-04T16:27:24.117Z,6.95
2022-09-04T16:30:05.521Z,5.43
2022-09-04T16:32:35.233Z,7.53
2022-09-04T16:35:12.453Z,7.70
2022-09-04T16:37:51.475Z,5.55
2022-09-04T16:40:38.039Z,6.22
2022-09-04T16:43:21.691Z,5.47
2022-09-04T16:45:55.231Z,7.38
2022-09-04T16:49:01.005Z,4.85
2022-09-04T16:51:39.820Z,4.95
2022-09-04T16:54:43.803Z,7.40
2022-09-04T16:57:17.221Z,8.40
2022-09-04T16:59:57.299Z,6.80
2022-09-04T17:02:51.148Z,9.23
2022-09-04T17:05:34.953Z,7.00
2022-09-04T17:08:17.934Z,8.30
2022-09-04T17:11:04.262Z,7.18
2022-09-04T17:14:08.399Z,9.18
2022-09-04T17:16:53.347Z,5.32
2022-09-04T17:19:22.065Z,7.82
2022-09-04T17:28:56.486Z,6.57
2022-09-04T17:29:11.749Z,8.30
2022-09-04T17:29:18.963Z,8.48
2022-09-04T17:31:17.550Z,8.65
2022-09-04T17:40:26.402Z,8.95
2022-09-04T17:40:53.464Z,9.93
2022-09-04T17:42:57.134Z,8.65
2022-09-04T17:46:12.701Z,9.48
2022-09-04T17:48:43.986Z,8.82
2022-09-04T17:51:25.559Z,10.52
2022-09-04T17:54:00.700Z,11.70
2022-09-04T17:56:45.280Z,10.65
2022-09-04T18:01:55.054Z,11.68
2022-09-04T18:04:53.377Z,12.00
2022-09-04T18:08:07.979Z,13.25
2022-09-04T18:11:02.990Z,13.45
2022-09-04T18:13:39.537Z,11.82
2022-09-04T18:16:09.623Z,14.10
2022-09-04T18:18:49.530Z,15.25
2022-09-04T18:21:31.317Z,12.27
2022-09-04T18:24:03.881Z,14.75
2022-09-04T18:26:41.735Z,13.02
2022-09-04T18:31:11.261Z,11.98
2022-09-04T18:37:18.978Z,12.40
2022-09-04T18:37:21.678Z,13.40
2022-09-04T18:39:08.777Z,13.23
2022-09-04T18:48:42.902Z,13.65
2022-09-04T18:50:25.573Z,16.15
2022-09-04T18:50:43.764Z,15.45
2022-09-04T18:54:01.041Z,13.90
2022-09-04T18:56:32.668Z,16.02
2022-09-04T18:59:05.916Z,17.13
2022-09-04T19:01:48.257Z,16.95
2022-09-04T19:04:43.536Z,15.07
2022-09-04T19:07:32.764Z,14.68
2022-09-04T19:10:17.737Z,14.40
2022-09-04T19:12:55.867Z,15.55
2022-09-04T19:15:48.134Z,12.80
2022-09-04T19:18:27.523Z,14.60
2022-09-04T19:21:14.219Z,13.77
2022-09-04T19:23:53.276Z,13.30
2022-09-04T19:26:29.412Z,14.57
2022-09-04T19:29:20.947Z,15.13
2022-09-04T19:31:57.184Z,14.10
2022-09-04T19:34:48.176Z,15.13
2022-09-04T19:39:21.038Z,13.52
2022-09-04T19:46:06.804Z,12.18
2022-09-04T19:46:07.453Z,12.38
2022-09-04T19:47:27.261Z,11.65
2022-09-04T19:52:38.226Z,11.32
2022-09-04T19:53:36.808Z,13.30
2022-09-04T19:56:09.475Z,11.48
2022-09-04T19:58:42.069Z,13.10
2022-09-04T20:01:23.782Z,13.80
2022-09-04T20:03:57.638Z,12.73
2022-09-04T20:06:31.835Z,10.70
2022-09-04T20:09:10.951Z,10.57
2022-09-04T20:11:55.683Z,11.38
2022-09-04T20:14:37.668Z,13.35
2022-09-04T20:17:25.776Z,10.40
2022-09-04T20:19:57.036Z,12.35
2022-09-04T20:22:28.925Z,12.77
2022-09-04T20:25:02.617Z,12.35
2022-09-04T20:28:00.596Z,11.48
2022-09-04T20:30:29.977Z,10.95
2022-09-04T20:33:06.122Z,10.57
2022-09-04T20:35:40.116Z,11.68
2022-09-04T20:38:32.619Z,11.02
2022-09-04T20:41:16.684Z,12.80
2022-09-04T20:44:13.588Z,14.30
2022-09-04T20:52:41.352Z,10.63
2022-09-04T20:53:05.302Z,11.23
2022-09-04T20:53:35.189Z,10.70
2022-09-04T20:57:00.994Z,10.18
2022-09-04T21:03:08.399Z,9.85
2022-09-04T21:03:21.496Z,9.95
2022-09-04T21:06:06.744Z,9.60
2022-09-04T21:08:49.713Z,9.75
2022-09-04T21:11:39.686Z,10.50
2022-09-04T21:14:08.507Z,8.63
2022-09-04T21:16:45.973Z,7.72
2022-09-04T21:19:28.973Z,8.88
2022-09-04T21:22:21.798Z,8.38
2022-09-04T21:25:27.498Z,10.05
2022-09-04T21:28:08.091Z,10.13
2022-09-04T21:30:50.300Z,7.10
2022-09-04T21:33:45.711Z,7.25
2022-09-04T21:36:26.778Z,7.43
2022-09-04T21:39:08.984Z,8.85
2022-09-04T21:42:16.648Z,9.95
2022-09-04T21:45:09.562Z,8.68
2022-09-04T21:47:39.496Z,7.10
2022-09-04T21:50:26.210Z,7.10
2022-09-04T21:53:28.345Z,9.27
2022-09-04T21:59:28.235Z,7.93
2022-09-04T22:02:38.112Z,6.70
2022-09-04T22:02:55.629Z,8.32
2022-09-04T22:05:37.540Z,5.22
2022-09-04T22:13:34.298Z,7.72
2022-09-04T22:13:37.849Z,4.78
2022-09-04T22:14:38.984Z,6.07
2022-09-04T22:17:33.520Z,4.68
2022-09-04T22:20:19.837Z,6.03
2022-09-04T22:23:05.640Z,5.18
2022-09-04T22:26:24.166Z,6.03
2022-09-04T22:29:08.428Z,8.60
2022-09-04T22:31:44.741Z,5.13
2022-09-04T22:34:36.439Z,3.63
2022-09-04T22:37:30.836Z,4.20
2022-09-04T22:40:17.193Z,5.93
2022-09-04T22:42:58.841Z,5.07
2022-09-04T22:45:43.891Z,4.90
2022-09-04T22:48:47.913Z,5.15
2022-09-04T22:52:00.867Z,5.93
2022-09-04T22:54:39.072Z,5.88
2022-09-04T22:57:19.940Z,4.53
2022-09-04T23:00:02.955Z,7.38
2022-09-04T23:06:29.435Z,5.70
2022-09-04T23:13:51.607Z,4.88
2022-09-04T23:13:53.395Z,4.57
2022-09-04T23:15:39.433Z,4.22
2022-09-04T23:18:57.065Z,4.28
2022-09-04T23:26:36.493Z,6.75
2022-09-04T23:26:43.382Z,6.53
2022-09-04T23:27:52.050Z,4.78
2022-09-04T23:30:25.518Z,6.35
2022-09-04T23:33:03.883Z,5.75
2022-09-04T23:35:58.432Z,9.30
2022-09-04T23:38:59.473Z,4.32
2022-09-04T23:41:52.711Z,4.53
2022-09-04T23:44:49.372Z,5.10
2022-09-04T23:47:47.611Z,4.22
2022-09-04T23:50:16.291Z,4.82
2022-09-04T23:53:12.320Z,4.72
2022-09-04T23:55:52.752Z,5.53
2022-09-04T23:59:11.202Z,3.55
